createdAt,value
2019-03-26T00:01:50.501Z,90.37
2019-03-26T00:04:21.790Z,90.53
2019-03-26T00:06:53.288Z,90.62
2019-03-26T00:09:24.722Z,90.42
2019-03-26T00:11:56.150Z,90.35
2019-03-26T00:14:27.581Z,90.38
2019-03-26T00:16:59.222Z,90.33
2019-03-26T00:19:30.737Z,90.26
2019-03-26T00:22:02.183Z,90.22
2019-03-26T00:24:33.501Z,90.24
2019-03-26T00:27:07.711Z,90.55
2019-03-26T00:29:38.069Z,90.75
2019-03-26T00:32:09.555Z,90.79
2019-03-26T00:34:40.970Z,90.76
2019-03-26T00:37:12.473Z,90.99
2019-03-26T00:39:43.869Z,91.05
2019-03-26T00:42:15.422Z,90.99
2019-03-26T00:44:46.695Z,90.82
2019-03-26T00:47:17.919Z,90.74
2019-03-26T00:49:49.244Z,90.55
2019-03-26T00:52:20.689Z,90.64
2019-03-26T00:54:52.029Z,90.65
2019-03-26T00:57:23.497Z,90.63
2019-03-26T00:59:55.070Z,90.60
2019-03-26T01:02:26.418Z,90.37
2019-03-26T01:04:57.708Z,90.28
2019-03-26T01:07:29.133Z,90.08
2019-03-26T01:10:00.662Z,90.22
2019-03-26T01:12:32.009Z,90.32
2019-03-26T01:15:03.382Z,90.32
2019-03-26T01:17:34.844Z,90.11
2019-03-26T01:20:06.753Z,90.18
2019-03-26T01:22:38.987Z,90.22
2019-03-26T01:25:10.528Z,90.31
2019-03-26T01:27:41.973Z,90.23
2019-03-26T01:30:13.959Z,90.31
2019-03-26T01:32:45.279Z,90.37
2019-03-26T01:35:16.634Z,90.52
2019-03-26T01:37:47.988Z,90.71
2019-03-26T01:40:19.375Z,90.88
2019-03-26T01:42:50.856Z,90.95
2019-03-26T01:45:22.258Z,90.82
2019-03-26T01:47:53.768Z,90.92
2019-03-26T01:50:25.146Z,90.98
2019-03-26T01:52:56.623Z,91.07
2019-03-26T01:55:28.082Z,91.19
2019-03-26T01:57:59.474Z,91.35
2019-03-26T02:00:31.430Z,91.22
2019-03-26T02:03:02.817Z,90.89
2019-03-26T02:05:34.156Z,90.57
2019-03-26T02:08:05.631Z,90.43
2019-03-26T02:10:37.029Z,89.98
2019-03-26T02:13:08.509Z,89.99
2019-03-26T02:15:40.078Z,89.91
2019-03-26T02:18:11.699Z,90.37
2019-03-26T02:20:43.090Z,90.52
2019-03-26T02:23:14.771Z,90.78
2019-03-26T02:25:46.145Z,91.05
2019-03-26T02:28:17.863Z,91.10
2019-03-26T02:30:49.310Z,91.04
2019-03-26T02:33:20.642Z,90.98
2019-03-26T02:35:52.025Z,91.01
2019-03-26T02:38:23.410Z,91.24
2019-03-26T02:40:54.799Z,91.58
2019-03-26T02:43:26.245Z,91.58
2019-03-26T02:45:57.570Z,91.59
2019-03-26T02:48:28.931Z,91.65
2019-03-26T02:51:00.349Z,91.67
2019-03-26T02:53:31.743Z,91.80
2019-03-26T02:56:03.220Z,91.94
2019-03-26T02:58:34.720Z,91.81
2019-03-26T03:01:06.149Z,91.76
2019-03-26T03:03:37.571Z,91.68
2019-03-26T03:06:09.049Z,91.78
2019-03-26T03:08:40.357Z,91.71
2019-03-26T03:11:11.804Z,91.74
2019-03-26T03:13:43.109Z,91.53
2019-03-26T03:16:14.534Z,91.56
2019-03-26T03:18:45.773Z,91.28
2019-03-26T03:21:17.068Z,90.51
2019-03-26T03:23:48.318Z,89.76
2019-03-26T03:26:19.559Z,89.61
2019-03-26T03:28:50.769Z,90.02
2019-03-26T03:31:22.191Z,90.23
2019-03-26T03:33:53.671Z,90.42
2019-03-26T03:36:25.080Z,90.46
2019-03-26T03:38:56.398Z,90.72
2019-03-26T03:41:27.825Z,90.56
2019-03-26T03:43:59.212Z,90.07
2019-03-26T03:46:30.672Z,90.31
2019-03-26T03:49:02.725Z,90.44
2019-03-26T03:51:35.829Z,90.68
2019-03-26T03:54:07.317Z,90.62
2019-03-26T03:56:41.795Z,90.44
2019-03-26T03:59:13.629Z,90.29
2019-03-26T04:01:45.059Z,90.42
2019-03-26T04:04:16.393Z,90.38
2019-03-26T04:06:47.749Z,90.35
2019-03-26T04:09:19.219Z,90.32
2019-03-26T04:11:50.436Z,90.25
2019-03-26T04:14:21.723Z,90.34
2019-03-26T04:16:53.110Z,90.06
2019-03-26T04:19:24.562Z,89.97
2019-03-26T04:21:55.978Z,89.85
2019-03-26T04:24:27.381Z,89.54
2019-03-26T04:26:58.789Z,89.35
2019-03-26T04:29:30.113Z,89.38
2019-03-26T04:32:01.586Z,89.53
2019-03-26T04:34:33.107Z,89.72
2019-03-26T04:37:04.649Z,89.83
2019-03-26T04:39:36.352Z,89.80
2019-03-26T04:42:08.025Z,89.56
2019-03-26T04:44:39.663Z,89.52
2019-03-26T04:47:10.983Z,89.26
2019-03-26T04:49:42.437Z,88.62
2019-03-26T04:52:14.234Z,87.90
2019-03-26T04:54:46.100Z,87.33
2019-03-26T04:57:17.503Z,87.29
2019-03-26T04:59:49.528Z,87.41
2019-03-26T05:02:21.052Z,87.27
2019-03-26T05:04:52.528Z,86.98
2019-03-26T05:07:23.919Z,86.48
2019-03-26T05:09:55.485Z,86.41
2019-03-26T05:12:27.526Z,86.69
2019-03-26T05:14:58.722Z,86.19
2019-03-26T05:17:32.622Z,86.11
2019-03-26T05:20:04.084Z,86.04
2019-03-26T05:22:35.570Z,85.74
2019-03-26T05:25:08.063Z,85.64
2019-03-26T05:27:45.686Z,85.65
2019-03-26T05:30:14.429Z,85.61
2019-03-26T05:32:46.343Z,85.82
2019-03-26T05:35:18.408Z,85.92
2019-03-26T05:37:50.422Z,85.54
2019-03-26T05:40:22.291Z,85.36
2019-03-26T05:42:54.568Z,85.22
2019-03-26T05:45:26.046Z,85.20
2019-03-26T05:47:57.488Z,85.23
2019-03-26T05:50:29.017Z,84.94
2019-03-26T05:53:00.560Z,85.04
2019-03-26T05:55:32.023Z,85.15
2019-03-26T05:58:03.417Z,85.40
2019-03-26T06:00:35.258Z,85.39
2019-03-26T06:03:06.672Z,85.35
2019-03-26T06:05:39.163Z,85.82
2019-03-26T06:08:10.718Z,85.67
2019-03-26T06:10:42.174Z,85.58
2019-03-26T06:13:13.778Z,85.40
2019-03-26T06:15:45.282Z,83.35
2019-03-26T06:18:17.153Z,80.53
2019-03-26T06:20:48.831Z,80.07
2019-03-26T06:23:20.884Z,80.72
2019-03-26T06:25:52.477Z,80.95
2019-03-26T06:28:24.025Z,81.06
2019-03-26T06:30:55.467Z,79.53
2019-03-26T06:33:26.874Z,77.69
2019-03-26T06:35:58.223Z,77.29
2019-03-26T06:38:29.578Z,75.96
2019-03-26T06:41:00.964Z,73.81
2019-03-26T06:43:32.350Z,72.27
2019-03-26T06:46:03.967Z,73.50
2019-03-26T06:48:35.551Z,70.81
2019-03-26T06:51:07.079Z,69.18
2019-03-26T06:53:38.429Z,70.96
2019-03-26T06:56:09.977Z,73.55
2019-03-26T06:58:41.546Z,74.78
2019-03-26T07:01:13.248Z,75.74
2019-03-26T07:03:44.730Z,74.73
2019-03-26T07:06:16.507Z,70.62
2019-03-26T07:08:48.535Z,72.05
2019-03-26T07:11:20.460Z,73.91
2019-03-26T07:13:52.163Z,74.16
2019-03-26T07:16:23.887Z,72.86
2019-03-26T07:18:55.436Z,72.52
2019-03-26T07:21:26.957Z,74.21
2019-03-26T07:23:58.428Z,75.04
2019-03-26T07:26:29.942Z,75.04
2019-03-26T07:29:01.506Z,73.85
2019-03-26T07:31:33.040Z,70.68
2019-03-26T07:34:07.096Z,69.54
2019-03-26T07:36:37.504Z,63.05
2019-03-26T07:39:09.859Z,55.78
2019-03-26T07:41:41.414Z,52.31
2019-03-26T07:44:12.970Z,53.54
2019-03-26T07:46:44.492Z,52.24
2019-03-26T07:49:15.885Z,51.80
2019-03-26T07:51:47.473Z,50.63
2019-03-26T07:54:19.029Z,52.32
2019-03-26T07:56:50.517Z,51.53
2019-03-26T07:59:21.997Z,51.73
2019-03-26T08:01:53.397Z,52.59
2019-03-26T08:04:24.901Z,58.55
2019-03-26T08:06:56.467Z,61.17
2019-03-26T08:09:31.435Z,58.38
2019-03-26T08:12:01.371Z,59.45
2019-03-26T08:14:34.532Z,62.42
2019-03-26T08:17:06.377Z,64.50
2019-03-26T08:19:37.808Z,65.45
2019-03-26T08:22:09.494Z,67.48
2019-03-26T08:24:41.049Z,67.63
2019-03-26T08:27:12.492Z,67.96
2019-03-26T08:29:44.098Z,68.14
2019-03-26T08:32:15.772Z,68.40
2019-03-26T08:34:47.402Z,68.40
2019-03-26T08:37:18.939Z,66.46
2019-03-26T08:39:50.323Z,67.72
2019-03-26T08:42:21.895Z,68.82
2019-03-26T08:44:53.388Z,70.78
2019-03-26T08:47:24.790Z,70.79
2019-03-26T08:49:57.284Z,71.46
2019-03-26T08:52:28.758Z,70.07
2019-03-26T08:55:00.367Z,69.39
2019-03-26T08:57:31.997Z,69.70
2019-03-26T09:00:03.612Z,68.42
2019-03-26T09:02:35.197Z,65.78
2019-03-26T09:05:08.560Z,65.53
2019-03-26T09:07:40.256Z,66.04
2019-03-26T09:10:12.954Z,65.54
2019-03-26T09:12:44.371Z,64.69
2019-03-26T09:15:16.388Z,65.09
2019-03-26T09:17:47.859Z,62.39
2019-03-26T09:20:21.844Z,63.19
2019-03-26T09:22:53.402Z,63.51
2019-03-26T09:25:24.909Z,60.46
2019-03-26T09:27:56.974Z,52.53
2019-03-26T09:30:28.518Z,46.94
2019-03-26T09:33:00.034Z,45.12
2019-03-26T09:35:31.524Z,45.52
2019-03-26T09:38:02.950Z,45.25
2019-03-26T09:40:34.479Z,47.38
2019-03-26T09:43:05.917Z,50.09
2019-03-26T09:45:37.377Z,53.68
2019-03-26T09:48:08.872Z,55.54
2019-03-26T09:50:40.394Z,56.10
2019-03-26T09:53:11.894Z,53.27
2019-03-26T09:55:43.403Z,54.30
2019-03-26T09:58:14.893Z,56.08
2019-03-26T10:00:46.474Z,55.40
2019-03-26T10:03:18.049Z,56.56
2019-03-26T10:05:49.472Z,58.15
2019-03-26T10:08:20.884Z,57.47
2019-03-26T10:10:52.553Z,60.19
2019-03-26T10:13:23.882Z,61.22
2019-03-26T10:15:55.325Z,61.91
2019-03-26T10:18:26.811Z,62.44
2019-03-26T10:20:58.194Z,61.45
2019-03-26T10:23:29.588Z,62.42
2019-03-26T10:26:03.862Z,62.26
2019-03-26T10:28:35.334Z,62.83
2019-03-26T10:31:06.699Z,63.54
2019-03-26T10:33:38.162Z,64.66
2019-03-26T10:36:09.554Z,64.43
2019-03-26T10:38:40.912Z,66.05
2019-03-26T10:41:12.308Z,67.29
2019-03-26T10:43:43.769Z,67.86
2019-03-26T10:46:15.174Z,68.16
2019-03-26T10:48:46.584Z,68.09
2019-03-26T10:51:17.960Z,64.81
2019-03-26T10:53:49.412Z,61.87
2019-03-26T10:56:21.454Z,62.20
2019-03-26T10:58:52.817Z,63.12
2019-03-26T11:01:24.273Z,62.96
2019-03-26T11:03:55.825Z,63.11
2019-03-26T11:06:27.339Z,60.80
2019-03-26T11:08:58.734Z,57.58
2019-03-26T11:11:30.029Z,58.73
2019-03-26T11:14:01.559Z,62.50
2019-03-26T11:16:33.129Z,66.81
2019-03-26T11:19:04.608Z,70.07
2019-03-26T11:21:36.016Z,69.01
2019-03-26T11:24:07.588Z,69.13
2019-03-26T11:26:39.167Z,67.57
2019-03-26T11:29:10.590Z,66.09
2019-03-26T11:31:43.780Z,67.06
2019-03-26T11:34:15.308Z,66.77
2019-03-26T11:36:46.992Z,67.86
2019-03-26T11:39:31.821Z,68.94
2019-03-26T11:41:51.507Z,68.09
2019-03-26T11:44:22.875Z,67.14
2019-03-26T11:46:54.690Z,64.60
2019-03-26T11:49:26.125Z,62.62
2019-03-26T11:51:57.559Z,62.56
2019-03-26T11:54:29.185Z,61.05
2019-03-26T11:57:00.624Z,61.47
2019-03-26T11:59:32.146Z,62.49
2019-03-26T12:02:05.213Z,62.88
2019-03-26T12:04:36.740Z,62.55
2019-03-26T12:07:08.046Z,63.63
2019-03-26T12:09:46.048Z,64.55
2019-03-26T12:12:12.742Z,63.80
2019-03-26T12:14:44.469Z,63.69
2019-03-26T12:17:15.941Z,64.86
2019-03-26T12:19:47.369Z,64.27
2019-03-26T12:22:19.603Z,64.76
2019-03-26T12:24:51.163Z,63.58
2019-03-26T12:27:22.675Z,64.09
2019-03-26T12:29:54.276Z,64.62
2019-03-26T12:32:25.799Z,65.88
2019-03-26T12:34:57.395Z,65.49
2019-03-26T12:37:28.810Z,65.87
2019-03-26T12:40:00.849Z,65.36
2019-03-26T12:42:32.697Z,65.04
2019-03-26T12:45:06.791Z,64.07
2019-03-26T12:47:37.529Z,63.43
2019-03-26T12:50:09.389Z,61.94
2019-03-26T12:52:40.954Z,61.39
2019-03-26T12:55:12.523Z,60.00
2019-03-26T12:57:43.980Z,59.80
2019-03-26T13:00:16.101Z,60.27
2019-03-26T13:02:47.484Z,58.61
2019-03-26T13:05:18.924Z,60.07
2019-03-26T13:07:50.348Z,60.76
2019-03-26T13:10:21.888Z,60.71
2019-03-26T13:12:53.464Z,61.57
2019-03-26T13:15:24.981Z,62.15
2019-03-26T13:17:56.463Z,62.79
2019-03-26T13:20:28.080Z,63.59
2019-03-26T13:22:59.505Z,64.08
2019-03-26T13:25:30.976Z,64.58
2019-03-26T13:28:02.407Z,64.41
2019-03-26T13:30:34.025Z,65.49
2019-03-26T13:33:05.440Z,65.15
2019-03-26T13:35:36.999Z,65.30
2019-03-26T13:38:08.484Z,64.92
2019-03-26T13:40:39.959Z,64.56
2019-03-26T13:43:11.539Z,63.77
2019-03-26T13:45:43.095Z,64.94
2019-03-26T13:48:14.589Z,64.87
2019-03-26T13:50:46.188Z,65.19
2019-03-26T13:53:17.655Z,65.36
2019-03-26T13:55:49.079Z,66.19
2019-03-26T13:58:20.664Z,65.31
2019-03-26T14:00:52.194Z,65.21
2019-03-26T14:03:23.619Z,65.09
2019-03-26T14:05:55.044Z,65.06
2019-03-26T14:08:26.490Z,64.56
2019-03-26T14:10:57.989Z,64.56
2019-03-26T14:13:29.459Z,64.70
2019-03-26T14:16:00.917Z,64.12
2019-03-26T14:18:32.484Z,64.00
2019-03-26T14:21:06.324Z,64.77
2019-03-26T14:23:37.789Z,63.37
2019-03-26T14:26:09.279Z,63.51
2019-03-26T14:28:41.108Z,64.01
2019-03-26T14:31:12.575Z,63.70
2019-03-26T14:33:44.089Z,63.66
2019-03-26T14:36:15.620Z,62.98
2019-03-26T14:38:47.240Z,63.89
2019-03-26T14:41:19.267Z,64.32
2019-03-26T14:43:50.770Z,64.35
2019-03-26T14:46:22.180Z,63.66
2019-03-26T14:48:53.649Z,63.63
2019-03-26T14:51:25.247Z,64.61
2019-03-26T14:53:56.768Z,63.70
2019-03-26T14:56:28.213Z,64.19
2019-03-26T14:58:59.708Z,64.64
2019-03-26T15:01:31.184Z,62.35
2019-03-26T15:04:02.737Z,61.14
2019-03-26T15:06:34.419Z,60.35
2019-03-26T15:09:08.204Z,59.81
2019-03-26T15:11:39.857Z,59.72
2019-03-26T15:14:11.354Z,60.22
2019-03-26T15:16:43.214Z,61.69
2019-03-26T15:19:14.745Z,61.03
2019-03-26T15:21:46.226Z,60.92
2019-03-26T15:24:17.734Z,60.65
2019-03-26T15:26:49.145Z,61.33
2019-03-26T15:29:20.654Z,60.27
2019-03-26T15:31:52.138Z,60.79
2019-03-26T15:34:35.584Z,60.95
2019-03-26T15:36:56.819Z,61.69
2019-03-26T15:39:28.340Z,61.11
2019-03-26T15:41:59.878Z,61.25
2019-03-26T15:44:31.634Z,61.89
2019-03-26T15:47:03.118Z,62.05
2019-03-26T15:49:34.718Z,61.96
2019-03-26T15:52:06.395Z,62.34
2019-03-26T15:54:37.809Z,62.49
2019-03-26T15:57:09.336Z,62.05
2019-03-26T15:59:40.824Z,62.59
2019-03-26T16:02:12.239Z,62.80
2019-03-26T16:04:43.769Z,63.25
2019-03-26T16:07:15.183Z,63.42
2019-03-26T16:09:46.623Z,63.77
2019-03-26T16:12:18.523Z,63.88
2019-03-26T16:14:53.801Z,63.54
2019-03-26T16:17:25.796Z,63.72
2019-03-26T16:19:57.364Z,63.81
2019-03-26T16:22:29.053Z,63.75
2019-03-26T16:25:01.989Z,63.96
2019-03-26T16:27:36.389Z,64.01
2019-03-26T16:30:11.003Z,64.24
2019-03-26T16:32:42.692Z,64.30
2019-03-26T16:35:14.254Z,64.25
2019-03-26T16:37:45.819Z,64.71
2019-03-26T16:40:18.556Z,64.96
2019-03-26T16:42:51.568Z,65.14
2019-03-26T16:45:25.518Z,65.71
2019-03-26T16:47:56.918Z,65.71
2019-03-26T16:50:31.975Z,66.32
2019-03-26T16:53:03.742Z,65.79
2019-03-26T16:55:36.669Z,66.05
2019-03-26T16:58:08.093Z,66.01
2019-03-26T17:00:40.762Z,66.22
2019-03-26T17:03:12.179Z,66.80
2019-03-26T17:05:43.663Z,66.38
2019-03-26T17:08:16.859Z,67.30
2019-03-26T17:10:49.429Z,67.52
2019-03-26T17:13:24.675Z,67.63
2019-03-26T17:15:59.616Z,67.33
2019-03-26T17:18:31.190Z,68.22
2019-03-26T17:21:02.691Z,68.75
2019-03-26T17:23:37.346Z,73.83
2019-03-26T17:26:11.096Z,76.89
2019-03-26T17:28:43.664Z,79.75
2019-03-26T17:31:15.253Z,81.02
2019-03-26T17:33:46.941Z,82.56
2019-03-26T17:36:21.706Z,83.55
2019-03-26T17:38:54.399Z,83.76
2019-03-26T17:41:25.861Z,84.05
2019-03-26T17:43:57.345Z,84.28
2019-03-26T17:46:31.329Z,84.39
2019-03-26T17:49:06.434Z,84.98
2019-03-26T17:51:42.149Z,84.66
2019-03-26T17:54:13.699Z,85.04
2019-03-26T17:56:48.173Z,86.63
2019-03-26T17:59:21.878Z,87.37
2019-03-26T18:01:54.514Z,87.88
2019-03-26T18:04:26.156Z,88.00
2019-03-26T18:06:57.619Z,88.24
2019-03-26T18:09:30.158Z,87.92
2019-03-26T18:12:01.551Z,88.34
2019-03-26T18:14:36.963Z,88.14
2019-03-26T18:17:08.586Z,88.87
2019-03-26T18:19:40.130Z,89.68
2019-03-26T18:22:11.745Z,89.98
2019-03-26T18:24:43.130Z,89.99
2019-03-26T18:27:18.115Z,90.27
2019-03-26T18:29:58.320Z,90.33
2019-03-26T18:32:33.104Z,90.74
2019-03-26T18:35:06.939Z,90.84
2019-03-26T18:37:44.058Z,91.17
2019-03-26T18:40:16.044Z,91.52
2019-03-26T18:42:47.612Z,91.76
2019-03-26T18:45:20.204Z,91.80
2019-03-26T18:47:57.889Z,91.90
2019-03-26T18:50:29.453Z,91.90
2019-03-26T18:53:03.717Z,92.08
2019-03-26T18:55:35.239Z,92.23
2019-03-26T18:58:08.670Z,92.04
2019-03-26T19:00:46.374Z,92.04
2019-03-26T19:03:17.980Z,91.83
2019-03-26T19:05:49.594Z,91.66
2019-03-26T19:08:24.803Z,91.42
2019-03-26T19:10:57.500Z,91.39
2019-03-26T19:13:29.472Z,91.43
2019-03-26T19:16:02.112Z,91.50
2019-03-26T19:18:33.549Z,91.68
2019-03-26T19:21:07.539Z,91.73
2019-03-26T19:23:44.435Z,91.81
2019-03-26T19:26:17.953Z,91.00
2019-03-26T19:29:02.291Z,90.28
2019-03-26T19:31:33.901Z,89.70
2019-03-26T19:34:08.596Z,88.85
2019-03-26T19:36:40.455Z,89.32
2019-03-26T19:39:14.440Z,89.50
2019-03-26T19:41:48.415Z,89.79
2019-03-26T19:44:22.823Z,90.03
2019-03-26T19:46:55.478Z,90.41
2019-03-26T19:49:31.186Z,90.61
2019-03-26T19:52:03.381Z,90.45
2019-03-26T19:54:37.162Z,90.58
2019-03-26T19:57:09.937Z,90.76
2019-03-26T19:59:42.693Z,90.93
2019-03-26T20:02:19.461Z,91.18
2019-03-26T20:04:51.310Z,91.15
2019-03-26T20:07:22.708Z,91.30
2019-03-26T20:09:54.714Z,91.49
2019-03-26T20:12:30.599Z,91.62
2019-03-26T20:15:02.603Z,91.66
2019-03-26T20:17:36.860Z,91.69
2019-03-26T20:20:09.868Z,91.74
2019-03-26T20:22:44.142Z,91.51
2019-03-26T20:25:16.314Z,91.27
2019-03-26T20:27:49.405Z,91.02
2019-03-26T20:30:24.260Z,90.95
2019-03-26T20:33:01.574Z,91.04
2019-03-26T20:35:38.598Z,90.91
2019-03-26T20:38:10.141Z,90.91
2019-03-26T20:40:43.057Z,90.80
2019-03-26T20:43:16.750Z,90.77
2019-03-26T20:45:51.349Z,90.66
2019-03-26T20:48:35.913Z,90.60
2019-03-26T20:51:07.536Z,90.42
2019-03-26T20:53:46.660Z,90.51
2019-03-26T20:56:24.876Z,90.48
2019-03-26T20:58:59.999Z,90.62
2019-03-26T21:01:33.685Z,90.68
2019-03-26T21:04:06.373Z,91.13
2019-03-26T21:06:38.989Z,91.49
2019-03-26T21:09:14.037Z,91.73
2019-03-26T21:11:50.565Z,91.94
2019-03-26T21:14:26.280Z,92.08
2019-03-26T21:16:57.913Z,91.90
2019-03-26T21:19:30.859Z,91.97
2019-03-26T21:22:02.233Z,91.71
2019-03-26T21:24:33.945Z,91.26
2019-03-26T21:27:06.495Z,90.78
2019-03-26T21:29:37.823Z,90.34
2019-03-26T21:32:09.389Z,90.00
2019-03-26T21:34:40.897Z,89.92
2019-03-26T21:37:12.589Z,89.26
2019-03-26T21:39:44.945Z,89.19
2019-03-26T21:42:16.525Z,89.11
2019-03-26T21:44:47.918Z,88.99
2019-03-26T21:47:19.344Z,89.11
2019-03-26T21:49:50.667Z,89.09
2019-03-26T21:52:40.899Z,89.07
2019-03-26T21:55:13.505Z,89.10
2019-03-26T21:57:45.125Z,88.70
2019-03-26T22:00:17.308Z,88.83
2019-03-26T22:02:48.870Z,88.72
2019-03-26T22:05:20.745Z,88.67
2019-03-26T22:07:52.169Z,88.57
2019-03-26T22:10:23.479Z,88.62
2019-03-26T22:12:54.980Z,88.84
2019-03-26T22:15:26.549Z,89.10
2019-03-26T22:17:58.129Z,89.25
2019-03-26T22:20:29.542Z,89.32
2019-03-26T22:23:01.061Z,89.78
2019-03-26T22:25:33.109Z,89.97
2019-03-26T22:28:04.688Z,90.20
2019-03-26T22:30:36.089Z,90.37
2019-03-26T22:33:07.428Z,90.69
2019-03-26T22:35:38.969Z,91.06
2019-03-26T22:38:10.363Z,91.41
2019-03-26T22:40:41.962Z,91.71
2019-03-26T22:43:13.370Z,91.94
2019-03-26T22:45:44.869Z,92.34
2019-03-26T22:48:16.283Z,92.79
2019-03-26T22:50:47.764Z,92.81
2019-03-26T22:53:20.438Z,91.87
2019-03-26T22:55:51.961Z,90.74
2019-03-26T22:58:23.724Z,90.20
2019-03-26T23:00:55.719Z,89.92
2019-03-26T23:03:27.244Z,89.72
2019-03-26T23:05:58.699Z,89.38
2019-03-26T23:08:30.310Z,88.97
2019-03-26T23:11:01.825Z,88.35
2019-03-26T23:13:33.379Z,88.92
2019-03-26T23:16:04.918Z,88.79
2019-03-26T23:18:36.321Z,88.15
2019-03-26T23:21:07.799Z,88.28
2019-03-26T23:23:39.440Z,88.08
2019-03-26T23:26:10.889Z,87.41
2019-03-26T23:28:42.485Z,87.43
2019-03-26T23:31:14.013Z,85.32
2019-03-26T23:33:45.409Z,85.72
2019-03-26T23:36:17.131Z,85.64
2019-03-26T23:38:48.854Z,85.48
2019-03-26T23:41:20.600Z,84.99
2019-03-26T23:43:52.715Z,85.19
2019-03-26T23:46:24.605Z,85.43
2019-03-26T23:48:56.344Z,85.61
2019-03-26T23:51:28.074Z,85.51
2019-03-26T23:53:59.669Z,85.39
2019-03-26T23:56:31.070Z,85.68
2019-03-26T23:59:02.526Z,86.13
